createdAt,value
2018-03-31T00:00:09.815Z,992.97
2018-03-31T00:01:09.798Z,992.96
2018-03-31T00:02:09.774Z,992.99
2018-03-31T00:03:09.781Z,992.98
2018-03-31T00:04:09.743Z,992.94
2018-03-31T00:05:09.714Z,992.98
2018-03-31T00:06:09.698Z,992.96
2018-03-31T00:07:09.673Z,992.98
2018-03-31T00:08:09.653Z,992.99
2018-03-31T00:09:09.635Z,993.00
2018-03-31T00:10:09.615Z,993.00
2018-03-31T00:11:09.592Z,993.01
2018-03-31T00:12:09.580Z,992.96
2018-03-31T00:13:09.559Z,992.97
2018-03-31T00:14:09.536Z,992.91
2018-03-31T00:15:09.513Z,992.92
2018-03-31T00:16:09.674Z,992.93
2018-03-31T00:17:09.474Z,992.94
2018-03-31T00:18:09.452Z,992.94
2018-03-31T00:19:09.506Z,992.94
2018-03-31T00:20:09.413Z,992.91
2018-03-31T00:21:09.399Z,992.92
2018-03-31T00:22:09.373Z,992.99
2018-03-31T00:23:09.351Z,992.96
2018-03-31T00:24:09.339Z,992.93
2018-03-31T00:25:09.312Z,992.91
2018-03-31T00:26:09.292Z,992.92
2018-03-31T00:27:09.270Z,992.86
2018-03-31T00:28:09.256Z,992.91
2018-03-31T00:29:09.232Z,992.91
2018-03-31T00:30:09.213Z,992.91
2018-03-31T00:31:09.190Z,992.93
2018-03-31T00:32:09.175Z,993.01
2018-03-31T00:33:09.149Z,993.01
2018-03-31T00:34:09.130Z,993.04
2018-03-31T00:35:09.111Z,993.06
2018-03-31T00:36:09.098Z,993.10
2018-03-31T00:37:09.070Z,993.08
2018-03-31T00:38:09.050Z,993.11
2018-03-31T00:39:09.030Z,993.05
2018-03-31T00:40:09.011Z,993.07
2018-03-31T00:41:08.989Z,993.03
2018-03-31T00:42:08.989Z,993.05
2018-03-31T00:43:08.952Z,993.04
2018-03-31T00:44:08.932Z,993.03
2018-03-31T00:45:08.911Z,993.04
2018-03-31T00:46:08.902Z,993.01
2018-03-31T00:47:08.875Z,993.00
2018-03-31T00:48:08.859Z,993.03
2018-03-31T00:49:08.860Z,993.05
2018-03-31T00:50:08.810Z,993.08
2018-03-31T00:51:08.798Z,993.10
2018-03-31T00:52:08.779Z,993.13
2018-03-31T00:53:08.756Z,993.15
2018-03-31T00:54:08.734Z,993.11
2018-03-31T00:55:08.721Z,993.13
2018-03-31T00:56:08.692Z,993.09
2018-03-31T00:57:08.673Z,993.08
2018-03-31T00:58:08.654Z,993.10
2018-03-31T00:59:08.682Z,993.02
2018-03-31T01:00:08.616Z,993.04
2018-03-31T01:01:08.593Z,993.03
2018-03-31T01:02:08.572Z,993.05
2018-03-31T01:03:08.560Z,993.01
2018-03-31T01:04:08.533Z,993.00
2018-03-31T01:05:08.525Z,992.97
2018-03-31T01:06:08.497Z,992.95
2018-03-31T01:07:08.475Z,992.98
2018-03-31T01:08:08.464Z,992.95
2018-03-31T01:09:08.433Z,992.95
2018-03-31T01:10:08.428Z,992.98
2018-03-31T01:11:08.395Z,992.97
2018-03-31T01:12:08.376Z,992.94
2018-03-31T01:13:08.356Z,992.98
2018-03-31T01:14:08.336Z,992.97
2018-03-31T01:15:08.318Z,992.96
2018-03-31T01:16:08.295Z,992.92
2018-03-31T01:17:08.327Z,992.92
2018-03-31T01:18:08.262Z,992.95
2018-03-31T01:19:08.241Z,992.97
2018-03-31T01:20:08.218Z,992.91
2018-03-31T01:21:08.194Z,992.91
2018-03-31T01:22:08.175Z,992.90
2018-03-31T01:23:08.154Z,992.94
2018-03-31T01:24:08.129Z,992.91
2018-03-31T01:25:08.114Z,992.89
2018-03-31T01:26:08.094Z,992.90
2018-03-31T01:27:08.074Z,992.88
2018-03-31T01:28:08.055Z,992.91
2018-03-31T01:29:08.033Z,992.93
2018-03-31T01:30:08.013Z,992.89
2018-03-31T01:31:07.996Z,992.95
2018-03-31T01:32:07.990Z,992.91
2018-03-31T01:33:07.949Z,992.91
2018-03-31T01:34:07.929Z,992.92
2018-03-31T01:35:07.958Z,992.88
2018-03-31T01:36:07.899Z,992.87
2018-03-31T01:37:07.868Z,992.84
2018-03-31T01:38:07.849Z,992.86
2018-03-31T01:39:07.835Z,992.87
2018-03-31T01:40:07.804Z,992.85
2018-03-31T01:41:07.785Z,992.86
2018-03-31T01:42:07.772Z,992.84
2018-03-31T01:43:07.744Z,992.89
2018-03-31T01:44:07.725Z,992.85
2018-03-31T01:45:07.704Z,992.86
2018-03-31T01:46:07.692Z,992.85
2018-03-31T01:47:07.664Z,992.86
2018-03-31T01:48:07.644Z,992.85
2018-03-31T01:49:07.627Z,992.86
2018-03-31T01:50:07.601Z,992.87
2018-03-31T01:51:07.681Z,992.85
2018-03-31T01:52:07.561Z,992.87
2018-03-31T01:53:07.545Z,992.90
2018-03-31T01:54:07.557Z,992.87
2018-03-31T01:55:07.501Z,992.88
2018-03-31T01:56:07.481Z,992.86
2018-03-31T01:57:07.459Z,992.88
2018-03-31T01:58:07.441Z,992.84
2018-03-31T01:59:07.421Z,992.82
2018-03-31T02:00:07.402Z,992.86
2018-03-31T02:01:07.417Z,992.85
2018-03-31T02:02:07.355Z,992.90
2018-03-31T02:03:07.348Z,992.85
2018-03-31T02:04:07.315Z,992.85
2018-03-31T02:05:07.295Z,992.86
2018-03-31T02:06:07.275Z,992.85
2018-03-31T02:07:07.256Z,992.82
2018-03-31T02:08:07.233Z,992.82
2018-03-31T02:09:07.213Z,992.83
2018-03-31T02:10:07.192Z,992.83
2018-03-31T02:11:07.194Z,992.78
2018-03-31T02:12:07.159Z,992.79
2018-03-31T02:13:07.138Z,992.79
2018-03-31T02:14:07.111Z,992.81
2018-03-31T02:15:07.088Z,992.76
2018-03-31T02:16:07.065Z,992.79
2018-03-31T02:17:07.057Z,992.78
2018-03-31T02:18:07.034Z,992.79
2018-03-31T02:19:07.004Z,992.80
2018-03-31T02:20:06.980Z,992.75
2018-03-31T02:21:06.963Z,992.76
2018-03-31T02:22:06.942Z,992.75
2018-03-31T02:23:06.920Z,992.73
2018-03-31T02:24:06.911Z,992.73
2018-03-31T02:25:06.877Z,992.72
2018-03-31T02:26:06.857Z,992.71
2018-03-31T02:27:06.844Z,992.71
2018-03-31T02:28:06.816Z,992.68
2018-03-31T02:29:06.793Z,992.70
2018-03-31T02:30:06.773Z,992.66
2018-03-31T02:31:06.752Z,992.73
2018-03-31T02:32:06.730Z,992.72
2018-03-31T02:33:06.709Z,992.72
2018-03-31T02:34:06.686Z,992.71
2018-03-31T02:35:06.670Z,992.71
2018-03-31T02:36:06.646Z,992.74
2018-03-31T02:37:06.626Z,992.69
2018-03-31T02:38:06.600Z,992.67
2018-03-31T02:39:06.582Z,992.67
2018-03-31T02:40:06.559Z,992.63
2018-03-31T02:41:06.540Z,992.59
2018-03-31T02:42:06.519Z,992.62
2018-03-31T02:43:06.512Z,992.60
2018-03-31T02:44:06.483Z,992.65
2018-03-31T02:45:06.455Z,992.61
2018-03-31T02:46:06.537Z,992.63
2018-03-31T02:47:06.416Z,992.62
2018-03-31T02:48:06.394Z,992.63
2018-03-31T02:49:06.374Z,992.61
2018-03-31T02:50:06.351Z,992.61
2018-03-31T02:51:06.334Z,992.57
2018-03-31T02:52:06.308Z,992.59
2018-03-31T02:53:06.292Z,992.58
2018-03-31T02:54:06.278Z,992.57
2018-03-31T02:55:06.248Z,992.57
2018-03-31T02:56:06.239Z,992.59
2018-03-31T02:57:06.208Z,992.60
2018-03-31T02:58:06.189Z,992.62
2018-03-31T02:59:06.167Z,992.59
2018-03-31T03:00:06.145Z,992.60
2018-03-31T03:01:06.125Z,992.59
2018-03-31T03:02:06.104Z,992.58
2018-03-31T03:03:06.085Z,992.59
2018-03-31T03:04:06.059Z,992.58
2018-03-31T03:05:06.042Z,992.64
2018-03-31T03:06:06.022Z,992.64
2018-03-31T03:07:05.999Z,992.62
2018-03-31T03:08:05.975Z,992.64
2018-03-31T03:09:05.958Z,992.70
2018-03-31T03:10:05.935Z,992.69
2018-03-31T03:11:05.920Z,992.69
2018-03-31T03:12:05.892Z,992.68
2018-03-31T03:13:05.892Z,992.69
2018-03-31T03:14:05.859Z,992.78
2018-03-31T03:15:05.851Z,992.77
2018-03-31T03:16:05.917Z,992.73
2018-03-31T03:17:05.790Z,992.76
2018-03-31T03:18:05.776Z,992.77
2018-03-31T03:19:05.754Z,992.79
2018-03-31T03:20:05.745Z,992.80
2018-03-31T03:21:05.711Z,992.77
2018-03-31T03:22:05.690Z,992.79
2018-03-31T03:23:05.671Z,992.78
2018-03-31T03:24:05.644Z,992.78
2018-03-31T03:25:05.630Z,992.79
2018-03-31T03:26:05.605Z,992.77
2018-03-31T03:27:05.586Z,992.79
2018-03-31T03:28:05.567Z,992.79
2018-03-31T03:29:05.549Z,992.77
2018-03-31T03:30:05.523Z,992.82
2018-03-31T03:31:05.504Z,992.82
2018-03-31T03:32:05.481Z,992.79
2018-03-31T03:33:05.464Z,992.84
2018-03-31T03:34:05.442Z,992.79
2018-03-31T03:35:05.429Z,992.84
2018-03-31T03:36:05.404Z,992.87
2018-03-31T03:37:05.379Z,992.84
2018-03-31T03:38:05.361Z,992.81
2018-03-31T03:39:05.376Z,992.86
2018-03-31T03:40:05.319Z,992.88
2018-03-31T03:41:05.304Z,992.87
2018-03-31T03:42:05.279Z,992.88
2018-03-31T03:43:05.260Z,992.94
2018-03-31T03:44:05.238Z,992.96
2018-03-31T03:45:05.233Z,993.02
2018-03-31T03:46:05.199Z,993.04
2018-03-31T03:47:05.177Z,993.05
2018-03-31T03:48:05.153Z,993.05
2018-03-31T03:49:05.132Z,993.10
2018-03-31T03:50:05.115Z,993.12
2018-03-31T03:51:05.098Z,993.14
2018-03-31T03:52:05.069Z,993.11
2018-03-31T03:53:05.050Z,993.12
2018-03-31T03:54:05.119Z,993.10
2018-03-31T03:55:05.018Z,993.14
2018-03-31T03:56:04.989Z,993.12
2018-03-31T03:57:05.019Z,993.14
2018-03-31T03:58:04.954Z,993.20
2018-03-31T03:59:04.931Z,993.20
2018-03-31T04:00:04.916Z,993.19
2018-03-31T04:01:04.887Z,993.18
2018-03-31T04:02:04.966Z,993.20
2018-03-31T04:03:04.848Z,993.20
2018-03-31T04:04:04.826Z,993.23
2018-03-31T04:05:04.858Z,993.21
2018-03-31T04:06:04.796Z,993.28
2018-03-31T04:07:04.769Z,993.27
2018-03-31T04:08:04.746Z,993.34
2018-03-31T04:09:04.724Z,993.27
2018-03-31T04:10:04.708Z,993.30
2018-03-31T04:11:04.685Z,993.27
2018-03-31T04:12:04.664Z,993.27
2018-03-31T04:13:04.645Z,993.26
2018-03-31T04:14:04.625Z,993.25
2018-03-31T04:15:04.604Z,993.24
2018-03-31T04:16:04.583Z,993.20
2018-03-31T04:17:04.559Z,993.21
2018-03-31T04:18:04.539Z,993.32
2018-03-31T04:19:04.542Z,993.26
2018-03-31T04:20:04.496Z,993.30
2018-03-31T04:21:04.486Z,993.33
2018-03-31T04:22:04.458Z,993.33
2018-03-31T04:23:04.439Z,993.34
2018-03-31T04:24:04.426Z,993.34
2018-03-31T04:25:04.395Z,993.34
2018-03-31T04:26:04.375Z,993.40
2018-03-31T04:27:04.409Z,993.37
2018-03-31T04:28:04.337Z,993.36
2018-03-31T04:29:04.313Z,993.35
2018-03-31T04:30:04.294Z,993.37
2018-03-31T04:31:04.273Z,993.44
2018-03-31T04:32:04.252Z,993.36
2018-03-31T04:33:04.237Z,993.43
2018-03-31T04:34:04.222Z,993.44
2018-03-31T04:35:04.193Z,993.45
2018-03-31T04:36:04.171Z,993.46
2018-03-31T04:37:04.147Z,993.50
2018-03-31T04:38:04.128Z,993.46
2018-03-31T04:39:04.105Z,993.46
2018-03-31T04:40:04.086Z,993.40
2018-03-31T04:41:04.064Z,993.39
2018-03-31T04:42:04.044Z,993.43
2018-03-31T04:43:04.022Z,993.36
2018-03-31T04:44:04.003Z,993.37
2018-03-31T04:45:03.980Z,993.36
2018-03-31T04:46:03.970Z,993.43
2018-03-31T04:47:03.942Z,993.38
2018-03-31T04:48:03.928Z,993.40
2018-03-31T04:49:03.912Z,993.41
2018-03-31T04:50:03.892Z,993.43
2018-03-31T04:51:03.864Z,993.35
2018-03-31T04:52:03.837Z,993.40
2018-03-31T04:53:03.816Z,993.41
2018-03-31T04:54:03.883Z,993.42
2018-03-31T04:55:03.773Z,993.41
2018-03-31T04:56:03.753Z,993.47
2018-03-31T04:57:03.735Z,993.50
2018-03-31T04:58:03.712Z,993.47
2018-03-31T04:59:03.688Z,993.50
2018-03-31T05:00:03.670Z,993.46
2018-03-31T05:01:03.657Z,993.47
2018-03-31T05:02:03.625Z,993.44
2018-03-31T05:03:03.612Z,993.48
2018-03-31T05:04:03.586Z,993.45
2018-03-31T05:05:03.572Z,993.46
2018-03-31T05:06:03.552Z,993.45
2018-03-31T05:07:03.522Z,993.42
2018-03-31T05:08:03.498Z,993.39
2018-03-31T05:09:03.478Z,993.39
2018-03-31T05:10:03.459Z,993.36
2018-03-31T05:11:03.439Z,993.38
2018-03-31T05:12:03.417Z,993.35
2018-03-31T05:13:03.439Z,993.29
2018-03-31T05:14:03.377Z,993.34
2018-03-31T05:15:03.361Z,993.29
2018-03-31T05:16:03.333Z,993.33
2018-03-31T05:17:03.310Z,993.31
2018-03-31T05:18:03.300Z,993.36
2018-03-31T05:19:03.269Z,993.35
2018-03-31T05:20:03.246Z,993.33
2018-03-31T05:21:03.229Z,993.33
2018-03-31T05:22:03.208Z,993.36
2018-03-31T05:23:03.182Z,993.36
2018-03-31T05:24:03.162Z,993.36
2018-03-31T05:25:03.141Z,993.35
2018-03-31T05:26:03.121Z,993.40
2018-03-31T05:27:03.100Z,993.38
2018-03-31T05:28:03.075Z,993.40
2018-03-31T05:29:03.066Z,993.40
2018-03-31T05:30:03.036Z,993.41
2018-03-31T05:31:03.017Z,993.39
2018-03-31T05:32:03.505Z,993.39
2018-03-31T05:33:02.976Z,993.38
2018-03-31T05:34:02.950Z,993.35
2018-03-31T05:35:02.973Z,993.34
2018-03-31T05:36:02.907Z,993.34
2018-03-31T05:37:02.887Z,993.33
2018-03-31T05:38:02.866Z,993.28
2018-03-31T05:39:02.847Z,993.30
2018-03-31T05:40:02.826Z,993.28
2018-03-31T05:41:02.811Z,993.25
2018-03-31T05:42:02.790Z,993.27
2018-03-31T05:43:02.764Z,993.28
2018-03-31T05:44:02.739Z,993.30
2018-03-31T05:45:02.725Z,993.31
2018-03-31T05:46:02.704Z,993.31
2018-03-31T05:47:02.678Z,993.32
2018-03-31T05:48:02.656Z,993.35
2018-03-31T05:49:02.636Z,993.34
2018-03-31T05:50:02.620Z,993.36
2018-03-31T05:51:02.593Z,993.39
2018-03-31T05:52:02.579Z,993.41
2018-03-31T05:53:02.553Z,993.43
2018-03-31T05:54:02.536Z,993.40
2018-03-31T05:55:02.515Z,993.43
2018-03-31T05:56:02.493Z,993.45
2018-03-31T05:57:02.472Z,993.44
2018-03-31T05:58:02.448Z,993.48
2018-03-31T05:59:02.427Z,993.44
2018-03-31T06:00:02.415Z,993.50
2018-03-31T06:01:02.386Z,993.50
2018-03-31T06:02:02.437Z,993.53
2018-03-31T06:03:02.344Z,993.53
2018-03-31T06:04:02.325Z,993.55
2018-03-31T06:05:02.313Z,993.56
2018-03-31T06:06:02.281Z,993.57
2018-03-31T06:07:02.261Z,993.57
2018-03-31T06:08:02.341Z,993.60
2018-03-31T06:09:02.225Z,993.59
2018-03-31T06:10:02.202Z,993.60
2018-03-31T06:11:02.180Z,993.63
2018-03-31T06:12:02.163Z,993.59
2018-03-31T06:13:02.141Z,993.61
2018-03-31T06:14:02.127Z,993.59
2018-03-31T06:15:02.112Z,993.62
2018-03-31T06:16:02.080Z,993.67
2018-03-31T06:17:02.059Z,993.68
2018-03-31T06:18:02.038Z,993.69
2018-03-31T06:19:02.019Z,993.80
2018-03-31T06:20:01.994Z,993.76
2018-03-31T06:21:01.984Z,993.79
2018-03-31T06:22:01.955Z,993.85
2018-03-31T06:23:01.940Z,993.81
2018-03-31T06:24:02.049Z,993.86
2018-03-31T06:25:01.895Z,993.86
2018-03-31T06:26:01.880Z,993.93
2018-03-31T06:27:01.868Z,993.90
2018-03-31T06:28:01.839Z,993.91
2018-03-31T06:29:01.827Z,993.92
2018-03-31T06:30:01.803Z,993.92
2018-03-31T06:31:01.779Z,993.94
2018-03-31T06:32:01.758Z,993.96
2018-03-31T06:33:01.738Z,993.95
2018-03-31T06:34:01.718Z,993.97
2018-03-31T06:35:01.702Z,993.99
2018-03-31T06:36:01.680Z,993.99
2018-03-31T06:37:01.660Z,993.97
2018-03-31T06:38:01.644Z,993.96
2018-03-31T06:39:01.628Z,993.95
2018-03-31T06:40:01.607Z,993.95
2018-03-31T06:41:01.587Z,993.97
2018-03-31T06:42:01.566Z,993.97
2018-03-31T06:43:01.554Z,993.97
2018-03-31T06:44:01.527Z,993.97
2018-03-31T06:45:01.517Z,994.02
2018-03-31T06:46:01.489Z,994.01
2018-03-31T06:47:01.472Z,994.02
2018-03-31T06:48:01.451Z,993.98
2018-03-31T06:49:01.449Z,993.96
2018-03-31T06:50:01.417Z,993.94
2018-03-31T06:51:01.529Z,993.97
2018-03-31T06:52:01.376Z,993.94
2018-03-31T06:53:01.359Z,993.94
2018-03-31T06:54:01.347Z,993.94
2018-03-31T06:55:01.321Z,993.96
2018-03-31T06:56:01.306Z,993.96
2018-03-31T06:57:01.285Z,993.97
2018-03-31T06:58:01.266Z,994.02
2018-03-31T06:59:01.256Z,994.05
2018-03-31T07:00:01.237Z,994.04
2018-03-31T07:01:01.210Z,994.07
2018-03-31T07:02:01.194Z,994.08
2018-03-31T07:03:01.180Z,994.10
2018-03-31T07:04:01.155Z,994.09
2018-03-31T07:05:01.144Z,994.16
2018-03-31T07:06:01.119Z,994.12
2018-03-31T07:07:01.210Z,994.12
2018-03-31T07:08:01.085Z,994.15
2018-03-31T07:09:01.064Z,994.14
2018-03-31T07:10:01.049Z,994.12
2018-03-31T07:11:01.035Z,994.16
2018-03-31T07:12:01.009Z,994.18
2018-03-31T07:13:00.995Z,994.16
2018-03-31T07:14:00.977Z,994.17
2018-03-31T07:15:00.972Z,994.12
2018-03-31T07:16:00.936Z,994.18
2018-03-31T07:17:00.919Z,994.16
2018-03-31T07:18:00.900Z,994.19
2018-03-31T07:19:00.882Z,994.18
2018-03-31T07:20:00.871Z,994.19
2018-03-31T07:21:00.853Z,994.20
2018-03-31T07:22:00.827Z,994.20
2018-03-31T07:23:00.810Z,994.20
2018-03-31T07:24:00.790Z,994.16
2018-03-31T07:25:00.774Z,994.13
2018-03-31T07:26:00.778Z,994.15
2018-03-31T07:27:00.740Z,994.17
2018-03-31T07:28:00.727Z,994.19
2018-03-31T07:29:00.703Z,994.22
2018-03-31T07:30:00.691Z,994.23
2018-03-31T07:31:00.664Z,994.23
2018-03-31T07:32:00.646Z,994.18
2018-03-31T07:33:00.632Z,994.19
2018-03-31T07:34:00.610Z,994.19
2018-03-31T07:35:00.594Z,994.17
2018-03-31T07:36:00.576Z,994.18
2018-03-31T07:37:00.557Z,994.20
2018-03-31T07:38:00.541Z,994.17
2018-03-31T07:39:00.522Z,994.15
2018-03-31T07:40:00.509Z,994.20
2018-03-31T07:41:00.491Z,994.20
2018-03-31T07:42:00.470Z,994.20
2018-03-31T07:43:00.452Z,994.26
2018-03-31T07:44:00.442Z,994.35
2018-03-31T07:45:00.434Z,994.27
2018-03-31T07:46:00.446Z,994.23
2018-03-31T07:47:00.384Z,994.23
2018-03-31T07:48:00.378Z,994.23
2018-03-31T07:49:00.350Z,994.18
2018-03-31T07:50:00.334Z,994.17
2018-03-31T07:51:00.326Z,994.18
2018-03-31T07:52:00.334Z,994.26
2018-03-31T07:53:00.287Z,994.21
2018-03-31T07:54:00.277Z,994.21
2018-03-31T07:55:00.253Z,994.21
2018-03-31T07:56:00.240Z,994.18
2018-03-31T07:57:00.218Z,994.22
2018-03-31T07:58:00.211Z,994.23
2018-03-31T07:59:00.299Z,994.29
2018-03-31T08:00:00.173Z,994.30
2018-03-31T08:01:00.220Z,994.35
2018-03-31T08:02:00.200Z,994.38
2018-03-31T08:03:00.134Z,994.40
2018-03-31T08:04:00.114Z,994.38
2018-03-31T08:05:00.101Z,994.36
2018-03-31T08:06:00.085Z,994.36
2018-03-31T08:07:00.076Z,994.40
2018-03-31T08:08:00.053Z,994.40
2018-03-31T08:09:00.050Z,994.40
2018-03-31T08:10:00.059Z,994.46
2018-03-31T08:11:00.017Z,994.50
2018-03-31T08:12:00.006Z,994.47
2018-03-31T08:12:59.999Z,994.53
2018-03-31T08:13:59.968Z,994.57
2018-03-31T08:14:59.988Z,994.59
2018-03-31T08:15:59.945Z,994.57
2018-03-31T08:16:59.933Z,994.57
2018-03-31T08:18:00.031Z,994.57
2018-03-31T08:18:59.906Z,994.52
2018-03-31T08:19:59.897Z,994.51
2018-03-31T08:20:59.888Z,994.47
2018-03-31T08:21:59.868Z,994.50
2018-03-31T08:22:59.878Z,994.49
2018-03-31T08:23:59.853Z,994.53
2018-03-31T08:24:59.834Z,994.57
2018-03-31T08:25:59.837Z,994.51
2018-03-31T08:26:59.816Z,994.54
2018-03-31T08:27:59.799Z,994.56
2018-03-31T08:28:59.793Z,994.50
2018-03-31T08:29:59.778Z,994.51
2018-03-31T08:30:59.767Z,994.54
2018-03-31T08:31:59.756Z,994.52
2018-03-31T08:32:59.745Z,994.53
2018-03-31T08:33:59.734Z,994.49
2018-03-31T08:34:59.724Z,994.53
2018-03-31T08:35:59.714Z,994.52
2018-03-31T08:36:59.708Z,994.59
2018-03-31T08:37:59.693Z,994.52
2018-03-31T08:38:59.684Z,994.56
2018-03-31T08:39:59.673Z,994.47
2018-03-31T08:40:59.663Z,994.51
2018-03-31T08:41:59.716Z,994.50
2018-03-31T08:42:59.638Z,994.56
2018-03-31T08:43:59.643Z,994.57
2018-03-31T08:44:59.622Z,994.60
2018-03-31T08:45:59.611Z,994.61
2018-03-31T08:46:59.602Z,994.63
2018-03-31T08:47:59.587Z,994.62
2018-03-31T08:48:59.585Z,994.62
2018-03-31T08:49:59.565Z,994.49
2018-03-31T08:50:59.557Z,994.47
2018-03-31T08:51:59.617Z,994.52
2018-03-31T08:52:59.533Z,994.56
2018-03-31T08:53:59.523Z,994.54
2018-03-31T08:54:59.515Z,994.69
2018-03-31T08:55:59.503Z,994.70
2018-03-31T08:56:59.492Z,994.73
2018-03-31T08:57:59.487Z,994.72
2018-03-31T08:58:59.471Z,994.72
2018-03-31T08:59:59.465Z,994.68
2018-03-31T09:00:59.462Z,994.66
2018-03-31T09:01:59.460Z,994.70
2018-03-31T09:02:59.435Z,994.64
2018-03-31T09:03:59.424Z,994.64
2018-03-31T09:04:59.490Z,994.68
2018-03-31T09:05:59.413Z,994.67
2018-03-31T09:06:59.408Z,994.68
2018-03-31T09:07:59.394Z,994.71
2018-03-31T09:08:59.395Z,994.66
2018-03-31T09:09:59.380Z,994.62
2018-03-31T09:10:59.370Z,994.64
2018-03-31T09:11:59.358Z,994.67
2018-03-31T09:12:59.361Z,994.71
2018-03-31T09:13:59.356Z,994.73
2018-03-31T09:14:59.340Z,994.74
2018-03-31T09:15:59.331Z,994.81
2018-03-31T09:16:59.323Z,994.72
2018-03-31T09:17:59.333Z,994.73
2018-03-31T09:18:59.317Z,994.72
2018-03-31T09:19:59.311Z,994.75
2018-03-31T09:20:59.297Z,994.81
2018-03-31T09:21:59.389Z,994.84
2018-03-31T09:22:59.333Z,994.85
2018-03-31T09:23:59.280Z,994.89
2018-03-31T09:24:59.276Z,994.87
2018-03-31T09:25:59.274Z,994.91
2018-03-31T09:26:59.267Z,994.92
2018-03-31T09:27:59.423Z,994.94
2018-03-31T09:28:59.272Z,994.99
2018-03-31T09:29:59.251Z,994.97
2018-03-31T09:30:59.251Z,994.92
2018-03-31T09:31:59.239Z,994.83
2018-03-31T09:32:59.291Z,994.81
2018-03-31T09:33:59.237Z,994.99
2018-03-31T09:34:59.230Z,994.99
2018-03-31T09:35:59.225Z,994.90
2018-03-31T09:36:59.216Z,994.94
2018-03-31T09:37:59.218Z,994.80
2018-03-31T09:38:59.211Z,994.70
2018-03-31T09:39:59.229Z,994.88
2018-03-31T09:40:59.202Z,994.93
2018-03-31T09:41:59.200Z,995.04
2018-03-31T09:42:59.188Z,995.01
2018-03-31T09:43:59.184Z,995.04
2018-03-31T09:44:59.179Z,995.01
2018-03-31T09:45:59.175Z,995.03
2018-03-31T09:46:59.174Z,995.02
2018-03-31T09:47:59.274Z,995.04
2018-03-31T09:48:59.164Z,995.04
2018-03-31T09:49:59.160Z,995.07
2018-03-31T09:50:59.176Z,995.07
2018-03-31T09:51:59.155Z,995.02
2018-03-31T09:52:59.150Z,995.02
2018-03-31T09:53:59.149Z,994.99
2018-03-31T09:54:59.152Z,994.98
2018-03-31T09:55:59.142Z,994.78
2018-03-31T09:56:59.142Z,994.90
2018-03-31T09:57:59.139Z,994.91
2018-03-31T09:58:59.134Z,994.94
2018-03-31T09:59:59.133Z,994.95
2018-03-31T10:00:59.138Z,994.93
2018-03-31T10:01:59.132Z,994.92
2018-03-31T10:02:59.126Z,994.90
2018-03-31T10:03:59.134Z,994.91
2018-03-31T10:04:59.123Z,994.94
2018-03-31T10:05:59.256Z,994.90
2018-03-31T10:06:59.131Z,994.95
2018-03-31T10:07:59.115Z,994.94
2018-03-31T10:08:59.117Z,994.93
2018-03-31T10:09:59.124Z,994.97
2018-03-31T10:10:59.112Z,994.91
2018-03-31T10:11:59.107Z,994.94
2018-03-31T10:12:59.107Z,994.87
2018-03-31T10:13:59.103Z,994.86
2018-03-31T10:14:59.152Z,994.91
2018-03-31T10:15:59.112Z,994.95
2018-03-31T10:16:59.107Z,994.90
2018-03-31T10:17:59.103Z,994.92
2018-03-31T10:18:59.103Z,994.89
2018-03-31T10:19:59.094Z,994.86
2018-03-31T10:20:59.093Z,994.92
2018-03-31T10:21:59.094Z,994.96
2018-03-31T10:22:59.090Z,994.85
2018-03-31T10:23:59.093Z,994.76
2018-03-31T10:24:59.082Z,994.76
2018-03-31T10:25:59.080Z,995.00
2018-03-31T10:26:59.084Z,995.01
2018-03-31T10:27:59.085Z,994.87
2018-03-31T10:28:59.077Z,994.73
2018-03-31T10:29:59.075Z,995.03
2018-03-31T10:30:59.077Z,995.05
2018-03-31T10:31:59.059Z,995.06
2018-03-31T10:32:59.069Z,995.08
2018-03-31T10:33:59.056Z,995.17
2018-03-31T10:34:59.049Z,995.15
2018-03-31T10:35:59.054Z,995.18
2018-03-31T10:36:59.047Z,995.17
2018-03-31T10:37:59.039Z,995.21
2018-03-31T10:38:59.032Z,995.28
2018-03-31T10:39:59.036Z,995.24
2018-03-31T10:40:59.035Z,995.32
2018-03-31T10:41:59.025Z,995.34
2018-03-31T10:42:59.025Z,995.40
2018-03-31T10:43:59.018Z,995.42
2018-03-31T10:44:59.011Z,995.44
2018-03-31T10:45:59.100Z,995.38
2018-03-31T10:46:59.010Z,995.45
2018-03-31T10:47:59.014Z,995.42
2018-03-31T10:48:59.093Z,995.50
2018-03-31T10:49:59.001Z,995.41
2018-03-31T10:50:59.000Z,995.53
2018-03-31T10:51:58.997Z,995.49
2018-03-31T10:52:58.992Z,995.49
2018-03-31T10:53:58.997Z,995.59
2018-03-31T10:54:58.989Z,995.67
2018-03-31T10:55:58.988Z,995.36
2018-03-31T10:56:58.988Z,994.92
2018-03-31T10:57:58.989Z,994.92
2018-03-31T10:58:58.992Z,994.90
2018-03-31T10:59:58.989Z,994.91
2018-03-31T11:00:58.988Z,994.93
2018-03-31T11:01:58.976Z,995.16
2018-03-31T11:02:58.980Z,995.66
2018-03-31T11:03:58.968Z,995.65
2018-03-31T11:04:58.965Z,995.65
2018-03-31T11:05:58.984Z,995.73
2018-03-31T11:06:58.962Z,995.72
2018-03-31T11:07:58.960Z,995.68
2018-03-31T11:08:58.956Z,995.71
2018-03-31T11:09:58.956Z,995.04
2018-03-31T11:10:58.946Z,995.73
2018-03-31T11:11:58.944Z,995.67
2018-03-31T11:12:58.940Z,995.65
2018-03-31T11:13:58.938Z,995.61
2018-03-31T11:14:58.936Z,995.66
2018-03-31T11:15:58.940Z,995.32
2018-03-31T11:16:58.927Z,995.65
2018-03-31T11:17:58.934Z,995.64
2018-03-31T11:18:58.957Z,995.63
2018-03-31T11:19:58.917Z,995.56
2018-03-31T11:20:58.923Z,995.52
2018-03-31T11:21:58.969Z,995.13
2018-03-31T11:22:58.911Z,995.71
2018-03-31T11:23:58.902Z,995.76
2018-03-31T11:24:58.930Z,995.69
2018-03-31T11:25:58.899Z,995.69
2018-03-31T11:26:58.893Z,995.68
2018-03-31T11:27:58.893Z,995.70
2018-03-31T11:28:58.887Z,995.72
2018-03-31T11:29:58.883Z,995.82
2018-03-31T11:30:58.883Z,995.85
2018-03-31T11:31:58.877Z,994.98
2018-03-31T11:32:58.876Z,994.91
2018-03-31T11:33:58.901Z,995.09
2018-03-31T11:34:58.883Z,995.82
2018-03-31T11:35:58.864Z,994.95
2018-03-31T11:36:58.858Z,994.93
2018-03-31T11:37:58.859Z,995.71
2018-03-31T11:38:58.853Z,994.93
2018-03-31T11:39:58.845Z,995.53
2018-03-31T11:40:58.842Z,994.84
2018-03-31T11:41:58.834Z,995.01
2018-03-31T11:42:58.829Z,995.18
2018-03-31T11:43:58.822Z,995.63
2018-03-31T11:44:58.824Z,995.55
2018-03-31T11:45:58.811Z,995.45
2018-03-31T11:46:58.804Z,995.43
2018-03-31T11:47:58.810Z,995.35
2018-03-31T11:48:58.846Z,995.26
2018-03-31T11:49:58.787Z,995.18
2018-03-31T11:50:58.782Z,995.09
2018-03-31T11:51:58.773Z,995.12
2018-03-31T11:52:58.858Z,995.08
2018-03-31T11:53:58.759Z,995.07
2018-03-31T11:54:58.767Z,995.02
2018-03-31T11:55:58.750Z,994.91
2018-03-31T11:56:58.740Z,994.81
2018-03-31T11:57:58.750Z,994.84
2018-03-31T11:58:58.766Z,994.76
2018-03-31T11:59:58.721Z,994.74
2018-03-31T12:00:58.720Z,994.76
2018-03-31T12:01:58.712Z,994.72
2018-03-31T12:02:58.713Z,994.71
2018-03-31T12:03:58.700Z,994.66
2018-03-31T12:04:58.738Z,994.68
2018-03-31T12:05:58.679Z,994.66
2018-03-31T12:06:58.673Z,994.67
2018-03-31T12:07:58.662Z,994.65
2018-03-31T12:08:58.660Z,994.62
2018-03-31T12:09:58.647Z,994.64
2018-03-31T12:10:58.647Z,994.68
2018-03-31T12:11:58.633Z,994.66
2018-03-31T12:12:58.685Z,994.67
2018-03-31T12:13:58.619Z,994.66
2018-03-31T12:14:58.608Z,994.67
2018-03-31T12:15:58.608Z,994.67
2018-03-31T12:16:58.589Z,994.65
2018-03-31T12:17:58.588Z,994.63
2018-03-31T12:18:58.579Z,994.64
2018-03-31T12:19:58.573Z,994.57
2018-03-31T12:20:58.558Z,994.59
2018-03-31T12:21:58.549Z,994.52
2018-03-31T12:22:58.529Z,994.51
2018-03-31T12:23:58.527Z,994.51
2018-03-31T12:24:58.517Z,994.51
2018-03-31T12:25:58.644Z,994.49
2018-03-31T12:26:58.489Z,994.55
2018-03-31T12:27:58.483Z,994.49